sensor_id;sensor_type;location;lat;lon;timestamp;P1;durP1;ratioP1;P2;durP2;ratioP2
15938;SDS011;8068;51.322;9.450;2023-11-21T00:02:26;9.00;;;6.03;;
15938;SDS011;8068;51.322;9.450;2023-11-21T00:04:54;8.70;;;6.20;;
15938;SDS011;8068;51.322;9.450;2023-11-21T00:07:21;6.87;;;6.17;;
15938;SDS011;8068;51.322;9.450;2023-11-21T00:09:48;6.70;;;6.10;;
15938;SDS011;8068;51.322;9.450;2023-11-21T00:12:15;11.83;;;5.87;;
15938;SDS011;8068;51.322;9.450;2023-11-21T00:14:42;6.47;;;5.83;;
15938;SDS011;8068;51.322;9.450;2023-11-21T00:17:09;6.57;;;5.60;;
15938;SDS011;8068;51.322;9.450;2023-11-21T00:19:36;6.17;;;5.57;;
15938;SDS011;8068;51.322;9.450;2023-11-21T00:22:03;7.67;;;6.47;;
15938;SDS011;8068;51.322;9.450;2023-11-21T00:24:30;5.83;;;5.20;;
15938;SDS011;8068;51.322;9.450;2023-11-21T00:26:57;9.23;;;5.63;;
15938;SDS011;8068;51.322;9.450;2023-11-21T00:29:23;6.77;;;5.80;;
15938;SDS011;8068;51.322;9.450;2023-11-21T00:31:50;7.47;;;6.10;;
15938;SDS011;8068;51.322;9.450;2023-11-21T00:34:17;6.03;;;5.43;;
15938;SDS011;8068;51.322;9.450;2023-11-21T00:36:44;7.40;;;5.70;;
15938;SDS011;8068;51.322;9.450;2023-11-21T00:39:11;7.10;;;4.83;;
15938;SDS011;8068;51.322;9.450;2023-11-21T00:41:38;10.73;;;5.60;;
15938;SDS011;8068;51.322;9.450;2023-11-21T00:44:05;8.43;;;4.97;;
15938;SDS011;8068;51.322;9.450;2023-11-21T00:46:33;6.93;;;5.00;;
15938;SDS011;8068;51.322;9.450;2023-11-21T00:49:00;7.13;;;4.90;;
15938;SDS011;8068;51.322;9.450;2023-11-21T00:51:27;4.60;;;3.97;;
15938;SDS011;8068;51.322;9.450;2023-11-21T00:53:54;5.67;;;4.43;;
15938;SDS011;8068;51.322;9.450;2023-11-21T00:56:21;5.43;;;4.00;;
15938;SDS011;8068;51.322;9.450;2023-11-21T00:58:49;4.30;;;3.90;;
15938;SDS011;8068;51.322;9.450;2023-11-21T01:01:19;4.80;;;4.30;;
15938;SDS011;8068;51.322;9.450;2023-11-21T01:03:47;9.63;;;3.90;;
15938;SDS011;8068;51.322;9.450;2023-11-21T01:06:14;5.47;;;3.80;;
15938;SDS011;8068;51.322;9.450;2023-11-21T01:08:43;4.00;;;3.60;;
15938;SDS011;8068;51.322;9.450;2023-11-21T01:11:11;3.30;;;2.90;;
15938;SDS011;8068;51.322;9.450;2023-11-21T01:13:41;8.37;;;2.50;;
15938;SDS011;8068;51.322;9.450;2023-11-21T01:16:09;3.00;;;2.40;;
15938;SDS011;8068;51.322;9.450;2023-11-21T01:18:36;2.93;;;2.70;;
15938;SDS011;8068;51.322;9.450;2023-11-21T01:21:03;2.80;;;2.60;;
15938;SDS011;8068;51.322;9.450;2023-11-21T01:23:30;6.30;;;2.40;;
15938;SDS011;8068;51.322;9.450;2023-11-21T01:25:57;4.47;;;2.50;;
15938;SDS011;8068;51.322;9.450;2023-11-21T01:28:24;4.67;;;3.30;;
15938;SDS011;8068;51.322;9.450;2023-11-21T01:30:51;8.73;;;3.47;;
15938;SDS011;8068;51.322;9.450;2023-11-21T01:33:18;4.23;;;3.10;;
15938;SDS011;8068;51.322;9.450;2023-11-21T01:35:45;5.10;;;3.47;;
15938;SDS011;8068;51.322;9.450;2023-11-21T01:38:13;5.20;;;3.40;;
15938;SDS011;8068;51.322;9.450;2023-11-21T01:40:41;9.20;;;4.27;;
15938;SDS011;8068;51.322;9.450;2023-11-21T01:43:08;8.37;;;3.83;;
15938;SDS011;8068;51.322;9.450;2023-11-21T01:45:35;4.27;;;3.40;;
15938;SDS011;8068;51.322;9.450;2023-11-21T01:48:02;5.13;;;4.17;;
15938;SDS011;8068;51.322;9.450;2023-11-21T01:50:30;7.70;;;3.80;;
15938;SDS011;8068;51.322;9.450;2023-11-21T01:52:57;4.70;;;3.43;;
15938;SDS011;8068;51.322;9.450;2023-11-21T01:55:24;4.53;;;3.30;;
15938;SDS011;8068;51.322;9.450;2023-11-21T01:57:54;4.40;;;3.70;;
15938;SDS011;8068;51.322;9.450;2023-11-21T02:00:22;4.10;;;3.80;;
15938;SDS011;8068;51.322;9.450;2023-11-21T02:02:50;3.53;;;3.23;;
15938;SDS011;8068;51.322;9.450;2023-11-21T02:05:18;4.20;;;3.80;;
15938;SDS011;8068;51.322;9.450;2023-11-21T02:07:45;5.27;;;3.67;;
15938;SDS011;8068;51.322;9.450;2023-11-21T02:10:16;4.40;;;3.30;;
15938;SDS011;8068;51.322;9.450;2023-11-21T02:15:37;8.33;;;3.87;;
15938;SDS011;8068;51.322;9.450;2023-11-21T02:18:05;4.43;;;3.93;;
15938;SDS011;8068;51.322;9.450;2023-11-21T02:20:33;4.57;;;4.27;;
15938;SDS011;8068;51.322;9.450;2023-11-21T02:23:02;5.07;;;4.67;;
15938;SDS011;8068;51.322;9.450;2023-11-21T02:25:29;7.17;;;5.70;;
15938;SDS011;8068;51.322;9.450;2023-11-21T02:27:59;9.20;;;5.83;;
15938;SDS011;8068;51.322;9.450;2023-11-21T02:30:27;7.77;;;5.70;;
15938;SDS011;8068;51.322;9.450;2023-11-21T02:32:55;7.20;;;5.80;;
15938;SDS011;8068;51.322;9.450;2023-11-21T02:35:24;12.00;;;5.33;;
15938;SDS011;8068;51.322;9.450;2023-11-21T02:37:52;9.67;;;5.73;;
15938;SDS011;8068;51.322;9.450;2023-11-21T02:40:20;6.67;;;6.00;;
15938;SDS011;8068;51.322;9.450;2023-11-21T02:42:47;10.97;;;6.90;;
15938;SDS011;8068;51.322;9.450;2023-11-21T02:45:14;12.27;;;7.90;;
15938;SDS011;8068;51.322;9.450;2023-11-21T02:47:47;12.43;;;7.00;;
15938;SDS011;8068;51.322;9.450;2023-11-21T02:50:14;8.43;;;6.23;;
15938;SDS011;8068;51.322;9.450;2023-11-21T02:52:41;6.97;;;6.27;;
15938;SDS011;8068;51.322;9.450;2023-11-21T02:55:08;9.53;;;5.50;;
15938;SDS011;8068;51.322;9.450;2023-11-21T02:57:35;11.30;;;6.73;;
15938;SDS011;8068;51.322;9.450;2023-11-21T03:00:02;10.63;;;6.80;;
15938;SDS011;8068;51.322;9.450;2023-11-21T03:02:29;9.43;;;6.63;;
15938;SDS011;8068;51.322;9.450;2023-11-21T03:04:57;12.30;;;6.70;;
15938;SDS011;8068;51.322;9.450;2023-11-21T03:07:24;6.53;;;6.00;;
15938;SDS011;8068;51.322;9.450;2023-11-21T03:09:51;11.13;;;7.10;;
15938;SDS011;8068;51.322;9.450;2023-11-21T03:12:18;10.47;;;7.00;;
15938;SDS011;8068;51.322;9.450;2023-11-21T03:14:46;13.03;;;6.20;;
15938;SDS011;8068;51.322;9.450;2023-11-21T03:17:14;6.30;;;5.77;;
15938;SDS011;8068;51.322;9.450;2023-11-21T03:19:41;8.10;;;5.90;;
15938;SDS011;8068;51.322;9.450;2023-11-21T03:22:08;11.20;;;5.93;;
15938;SDS011;8068;51.322;9.450;2023-11-21T03:24:36;8.40;;;6.87;;
15938;SDS011;8068;51.322;9.450;2023-11-21T03:27:04;6.07;;;5.40;;
15938;SDS011;8068;51.322;9.450;2023-11-21T03:29:31;6.10;;;5.60;;
15938;SDS011;8068;51.322;9.450;2023-11-21T03:32:14;9.33;;;6.00;;
15938;SDS011;8068;51.322;9.450;2023-11-21T03:34:54;8.53;;;5.90;;
15938;SDS011;8068;51.322;9.450;2023-11-21T03:37:23;7.67;;;6.30;;
15938;SDS011;8068;51.322;9.450;2023-11-21T03:39:51;19.57;;;8.23;;
15938;SDS011;8068;51.322;9.450;2023-11-21T03:42:18;8.73;;;7.10;;
15938;SDS011;8068;51.322;9.450;2023-11-21T03:44:45;8.37;;;6.90;;
15938;SDS011;8068;51.322;9.450;2023-11-21T03:47:12;7.80;;;6.80;;
15938;SDS011;8068;51.322;9.450;2023-11-21T03:49:40;7.30;;;6.30;;
15938;SDS011;8068;51.322;9.450;2023-11-21T03:52:07;7.70;;;6.90;;
15938;SDS011;8068;51.322;9.450;2023-11-21T03:54:34;10.23;;;6.40;;
15938;SDS011;8068;51.322;9.450;2023-11-21T03:57:01;7.27;;;6.40;;
15938;SDS011;8068;51.322;9.450;2023-11-21T03:59:28;7.60;;;6.20;;
15938;SDS011;8068;51.322;9.450;2023-11-21T04:01:55;7.17;;;6.00;;
15938;SDS011;8068;51.322;9.450;2023-11-21T04:04:23;6.27;;;5.47;;
15938;SDS011;8068;51.322;9.450;2023-11-21T04:06:50;9.40;;;5.53;;
15938;SDS011;8068;51.322;9.450;2023-11-21T04:09:18;6.20;;;5.67;;
15938;SDS011;8068;51.322;9.450;2023-11-21T04:11:45;8.20;;;6.17;;
15938;SDS011;8068;51.322;9.450;2023-11-21T04:14:13;15.67;;;9.67;;
15938;SDS011;8068;51.322;9.450;2023-11-21T04:16:40;41.90;;;20.37;;
15938;SDS011;8068;51.322;9.450;2023-11-21T04:19:07;44.37;;;21.07;;
15938;SDS011;8068;51.322;9.450;2023-11-21T04:21:37;54.60;;;25.00;;
15938;SDS011;8068;51.322;9.450;2023-11-21T04:24:04;21.83;;;14.03;;
15938;SDS011;8068;51.322;9.450;2023-11-21T04:26:32;15.23;;;11.20;;
15938;SDS011;8068;51.322;9.450;2023-11-21T04:28:59;21.57;;;9.70;;
15938;SDS011;8068;51.322;9.450;2023-11-21T04:31:26;14.87;;;8.23;;
15938;SDS011;8068;51.322;9.450;2023-11-21T04:33:53;9.10;;;6.90;;
15938;SDS011;8068;51.322;9.450;2023-11-21T04:36:20;9.80;;;7.37;;
15938;SDS011;8068;51.322;9.450;2023-11-21T04:38:47;11.03;;;6.93;;
15938;SDS011;8068;51.322;9.450;2023-11-21T04:41:14;8.53;;;7.00;;
15938;SDS011;8068;51.322;9.450;2023-11-21T04:43:41;10.17;;;8.17;;
15938;SDS011;8068;51.322;9.450;2023-11-21T04:46:09;10.47;;;6.60;;
15938;SDS011;8068;51.322;9.450;2023-11-21T04:48:36;9.83;;;7.17;;
15938;SDS011;8068;51.322;9.450;2023-11-21T04:51:03;7.50;;;6.90;;
15938;SDS011;8068;51.322;9.450;2023-11-21T04:53:31;11.23;;;7.23;;
15938;SDS011;8068;51.322;9.450;2023-11-21T04:55:57;10.07;;;6.83;;
15938;SDS011;8068;51.322;9.450;2023-11-21T04:58:25;8.20;;;6.90;;
15938;SDS011;8068;51.322;9.450;2023-11-21T05:00:52;14.70;;;6.50;;
15938;SDS011;8068;51.322;9.450;2023-11-21T05:03:19;5.07;;;4.50;;
15938;SDS011;8068;51.322;9.450;2023-11-21T05:05:46;8.47;;;4.30;;
15938;SDS011;8068;51.322;9.450;2023-11-21T05:08:13;7.73;;;4.10;;
15938;SDS011;8068;51.322;9.450;2023-11-21T05:10:40;4.60;;;4.20;;
15938;SDS011;8068;51.322;9.450;2023-11-21T05:13:07;8.23;;;4.73;;
15938;SDS011;8068;51.322;9.450;2023-11-21T05:15:37;5.40;;;4.87;;
15938;SDS011;8068;51.322;9.450;2023-11-21T05:18:05;5.60;;;5.20;;
15938;SDS011;8068;51.322;9.450;2023-11-21T05:20:33;7.30;;;5.77;;
15938;SDS011;8068;51.322;9.450;2023-11-21T05:23:00;14.20;;;5.80;;
15938;SDS011;8068;51.322;9.450;2023-11-21T05:25:27;11.93;;;6.20;;
15938;SDS011;8068;51.322;9.450;2023-11-21T05:27:54;12.93;;;6.33;;
15938;SDS011;8068;51.322;9.450;2023-11-21T05:30:21;7.13;;;5.47;;
15938;SDS011;8068;51.322;9.450;2023-11-21T05:32:48;8.13;;;5.67;;
15938;SDS011;8068;51.322;9.450;2023-11-21T05:35:16;13.10;;;5.93;;
15938;SDS011;8068;51.322;9.450;2023-11-21T05:37:44;9.93;;;5.40;;
15938;SDS011;8068;51.322;9.450;2023-11-21T05:40:12;10.43;;;6.50;;
15938;SDS011;8068;51.322;9.450;2023-11-21T05:42:40;9.17;;;6.60;;
15938;SDS011;8068;51.322;9.450;2023-11-21T05:45:07;8.50;;;6.37;;
15938;SDS011;8068;51.322;9.450;2023-11-21T05:47:39;8.77;;;6.20;;
15938;SDS011;8068;51.322;9.450;2023-11-21T05:50:11;7.10;;;6.40;;
15938;SDS011;8068;51.322;9.450;2023-11-21T05:52:41;10.73;;;6.10;;
15938;SDS011;8068;51.322;9.450;2023-11-21T05:55:09;7.20;;;6.50;;
15938;SDS011;8068;51.322;9.450;2023-11-21T05:57:39;10.40;;;7.07;;
15938;SDS011;8068;51.322;9.450;2023-11-21T06:00:07;11.00;;;7.70;;
15938;SDS011;8068;51.322;9.450;2023-11-21T06:02:48;12.93;;;7.60;;
15938;SDS011;8068;51.322;9.450;2023-11-21T06:05:18;11.80;;;7.50;;
15938;SDS011;8068;51.322;9.450;2023-11-21T06:07:46;7.90;;;7.10;;
15938;SDS011;8068;51.322;9.450;2023-11-21T06:10:13;9.87;;;8.10;;
15938;SDS011;8068;51.322;9.450;2023-11-21T06:12:41;12.03;;;8.13;;
15938;SDS011;8068;51.322;9.450;2023-11-21T06:15:09;11.03;;;8.30;;
15938;SDS011;8068;51.322;9.450;2023-11-21T06:17:40;11.37;;;9.37;;
15938;SDS011;8068;51.322;9.450;2023-11-21T06:20:11;12.07;;;8.87;;
15938;SDS011;8068;51.322;9.450;2023-11-21T06:22:42;14.83;;;8.67;;
15938;SDS011;8068;51.322;9.450;2023-11-21T06:25:09;10.07;;;8.23;;
15938;SDS011;8068;51.322;9.450;2023-11-21T06:27:43;17.33;;;9.93;;
15938;SDS011;8068;51.322;9.450;2023-11-21T06:30:11;15.40;;;9.30;;
15938;SDS011;8068;51.322;9.450;2023-11-21T06:32:41;9.83;;;8.10;;
15938;SDS011;8068;51.322;9.450;2023-11-21T06:35:08;10.40;;;9.30;;
15938;SDS011;8068;51.322;9.450;2023-11-21T06:37:36;13.07;;;10.27;;
15938;SDS011;8068;51.322;9.450;2023-11-21T06:40:04;22.30;;;10.70;;
15938;SDS011;8068;51.322;9.450;2023-11-21T06:42:32;15.60;;;10.53;;
15938;SDS011;8068;51.322;9.450;2023-11-21T06:45:05;20.43;;;11.17;;
15938;SDS011;8068;51.322;9.450;2023-11-21T06:47:32;17.43;;;11.13;;
15938;SDS011;8068;51.322;9.450;2023-11-21T06:49:59;19.07;;;11.80;;
15938;SDS011;8068;51.322;9.450;2023-11-21T06:52:27;21.43;;;11.00;;
15938;SDS011;8068;51.322;9.450;2023-11-21T06:54:54;19.70;;;11.30;;
15938;SDS011;8068;51.322;9.450;2023-11-21T06:57:24;18.33;;;13.70;;
15938;SDS011;8068;51.322;9.450;2023-11-21T06:59:51;19.63;;;12.30;;
15938;SDS011;8068;51.322;9.450;2023-11-21T07:02:18;18.33;;;12.50;;
15938;SDS011;8068;51.322;9.450;2023-11-21T07:04:45;19.13;;;12.53;;
15938;SDS011;8068;51.322;9.450;2023-11-21T07:07:13;21.20;;;12.50;;
15938;SDS011;8068;51.322;9.450;2023-11-21T07:09:40;26.63;;;12.97;;
15938;SDS011;8068;51.322;9.450;2023-11-21T07:12:07;17.87;;;12.40;;
15938;SDS011;8068;51.322;9.450;2023-11-21T07:14:34;21.70;;;11.33;;
15938;SDS011;8068;51.322;9.450;2023-11-21T07:17:01;17.13;;;11.30;;
15938;SDS011;8068;51.322;9.450;2023-11-21T07:19:28;17.43;;;11.47;;
15938;SDS011;8068;51.322;9.450;2023-11-21T07:21:56;11.00;;;9.00;;
15938;SDS011;8068;51.322;9.450;2023-11-21T07:24:23;17.03;;;10.83;;
15938;SDS011;8068;51.322;9.450;2023-11-21T07:26:53;14.53;;;8.70;;
15938;SDS011;8068;51.322;9.450;2023-11-21T07:29:23;15.20;;;9.50;;
15938;SDS011;8068;51.322;9.450;2023-11-21T07:31:52;13.37;;;9.40;;
15938;SDS011;8068;51.322;9.450;2023-11-21T07:34:20;21.53;;;8.70;;
15938;SDS011;8068;51.322;9.450;2023-11-21T07:36:47;12.37;;;8.60;;
15938;SDS011;8068;51.322;9.450;2023-11-21T07:39:14;10.73;;;9.07;;
15938;SDS011;8068;51.322;9.450;2023-11-21T07:41:44;12.23;;;8.50;;
15938;SDS011;8068;51.322;9.450;2023-11-21T07:44:18;11.40;;;7.80;;
15938;SDS011;8068;51.322;9.450;2023-11-21T07:46:47;12.50;;;9.30;;
15938;SDS011;8068;51.322;9.450;2023-11-21T07:49:16;9.60;;;7.67;;
15938;SDS011;8068;51.322;9.450;2023-11-21T07:51:47;15.43;;;8.83;;
15938;SDS011;8068;51.322;9.450;2023-11-21T07:54:14;14.17;;;8.57;;
15938;SDS011;8068;51.322;9.450;2023-11-21T07:56:42;17.23;;;8.40;;
15938;SDS011;8068;51.322;9.450;2023-11-21T07:59:09;11.20;;;8.40;;
15938;SDS011;8068;51.322;9.450;2023-11-21T08:01:37;13.40;;;9.13;;
15938;SDS011;8068;51.322;9.450;2023-11-21T08:04:04;9.80;;;8.20;;
15938;SDS011;8068;51.322;9.450;2023-11-21T08:06:31;11.40;;;8.37;;
15938;SDS011;8068;51.322;9.450;2023-11-21T08:08:59;14.50;;;9.20;;
15938;SDS011;8068;51.322;9.450;2023-11-21T08:11:26;12.90;;;8.70;;
15938;SDS011;8068;51.322;9.450;2023-11-21T08:13:56;14.33;;;9.00;;
15938;SDS011;8068;51.322;9.450;2023-11-21T08:16:23;13.57;;;9.10;;
15938;SDS011;8068;51.322;9.450;2023-11-21T08:18:51;19.60;;;8.97;;
15938;SDS011;8068;51.322;9.450;2023-11-21T08:21:18;20.07;;;9.23;;
15938;SDS011;8068;51.322;9.450;2023-11-21T08:23:46;12.77;;;9.73;;
15938;SDS011;8068;51.322;9.450;2023-11-21T08:26:15;13.10;;;10.40;;
15938;SDS011;8068;51.322;9.450;2023-11-21T08:28:42;14.90;;;10.30;;
15938;SDS011;8068;51.322;9.450;2023-11-21T08:31:10;14.40;;;10.53;;
15938;SDS011;8068;51.322;9.450;2023-11-21T08:33:39;15.93;;;8.90;;
15938;SDS011;8068;51.322;9.450;2023-11-21T08:36:07;17.50;;;9.40;;
15938;SDS011;8068;51.322;9.450;2023-11-21T08:38:35;20.67;;;9.70;;
15938;SDS011;8068;51.322;9.450;2023-11-21T08:41:05;11.10;;;9.37;;
15938;SDS011;8068;51.322;9.450;2023-11-21T08:43:37;17.67;;;10.00;;
15938;SDS011;8068;51.322;9.450;2023-11-21T08:46:07;13.60;;;9.43;;
15938;SDS011;8068;51.322;9.450;2023-11-21T08:48:36;14.97;;;10.73;;
15938;SDS011;8068;51.322;9.450;2023-11-21T08:51:03;19.67;;;10.97;;
15938;SDS011;8068;51.322;9.450;2023-11-21T08:53:31;18.30;;;9.90;;
15938;SDS011;8068;51.322;9.450;2023-11-21T08:55:58;13.77;;;10.43;;
15938;SDS011;8068;51.322;9.450;2023-11-21T08:58:25;22.77;;;11.20;;
15938;SDS011;8068;51.322;9.450;2023-11-21T09:00:52;10.57;;;9.47;;
15938;SDS011;8068;51.322;9.450;2023-11-21T09:03:19;13.13;;;9.63;;
15938;SDS011;8068;51.322;9.450;2023-11-21T09:05:46;14.43;;;10.20;;
15938;SDS011;8068;51.322;9.450;2023-11-21T09:08:13;21.23;;;11.03;;
15938;SDS011;8068;51.322;9.450;2023-11-21T09:10:40;25.93;;;12.83;;
15938;SDS011;8068;51.322;9.450;2023-11-21T09:13:09;15.23;;;11.33;;
15938;SDS011;8068;51.322;9.450;2023-11-21T09:15:36;19.17;;;10.20;;
15938;SDS011;8068;51.322;9.450;2023-11-21T09:18:03;14.03;;;10.00;;
15938;SDS011;8068;51.322;9.450;2023-11-21T09:20:31;17.67;;;10.37;;
15938;SDS011;8068;51.322;9.450;2023-11-21T09:22:59;18.00;;;9.90;;
15938;SDS011;8068;51.322;9.450;2023-11-21T09:25:26;20.10;;;11.00;;
15938;SDS011;8068;51.322;9.450;2023-11-21T09:27:55;17.07;;;11.13;;
15938;SDS011;8068;51.322;9.450;2023-11-21T09:30:24;15.23;;;11.27;;
15938;SDS011;8068;51.322;9.450;2023-11-21T09:32:51;21.83;;;11.87;;
15938;SDS011;8068;51.322;9.450;2023-11-21T09:35:18;17.10;;;11.93;;
15938;SDS011;8068;51.322;9.450;2023-11-21T09:37:45;15.90;;;10.93;;
15938;SDS011;8068;51.322;9.450;2023-11-21T09:40:15;24.10;;;11.13;;
15938;SDS011;8068;51.322;9.450;2023-11-21T09:42:50;14.60;;;10.50;;
15938;SDS011;8068;51.322;9.450;2023-11-21T09:45:24;21.13;;;11.93;;
15938;SDS011;8068;51.322;9.450;2023-11-21T09:47:56;21.90;;;11.30;;
15938;SDS011;8068;51.322;9.450;2023-11-21T09:50:24;18.30;;;12.20;;
15938;SDS011;8068;51.322;9.450;2023-11-21T09:53:05;17.10;;;11.83;;
15938;SDS011;8068;51.322;9.450;2023-11-21T09:55:51;18.00;;;12.33;;
15938;SDS011;8068;51.322;9.450;2023-11-21T09:58:19;16.70;;;11.73;;
15938;SDS011;8068;51.322;9.450;2023-11-21T10:00:54;14.53;;;11.43;;
15938;SDS011;8068;51.322;9.450;2023-11-21T10:03:23;17.47;;;11.87;;
15938;SDS011;8068;51.322;9.450;2023-11-21T10:05:51;14.47;;;11.37;;
15938;SDS011;8068;51.322;9.450;2023-11-21T10:08:20;16.83;;;12.53;;
15938;SDS011;8068;51.322;9.450;2023-11-21T10:10:49;19.73;;;11.60;;
15938;SDS011;8068;51.322;9.450;2023-11-21T10:13:18;18.10;;;12.57;;
15938;SDS011;8068;51.322;9.450;2023-11-21T10:15:50;18.67;;;11.70;;
15938;SDS011;8068;51.322;9.450;2023-11-21T10:18:18;20.70;;;13.20;;
15938;SDS011;8068;51.322;9.450;2023-11-21T10:20:45;19.70;;;13.83;;
15938;SDS011;8068;51.322;9.450;2023-11-21T10:23:23;23.60;;;13.73;;
15938;SDS011;8068;51.322;9.450;2023-11-21T10:25:51;16.53;;;12.70;;
15938;SDS011;8068;51.322;9.450;2023-11-21T10:28:19;17.60;;;13.10;;
15938;SDS011;8068;51.322;9.450;2023-11-21T10:30:48;21.63;;;12.80;;
15938;SDS011;8068;51.322;9.450;2023-11-21T10:33:15;20.07;;;12.73;;
15938;SDS011;8068;51.322;9.450;2023-11-21T10:35:48;26.67;;;13.87;;
15938;SDS011;8068;51.322;9.450;2023-11-21T10:38:21;20.40;;;13.73;;
15938;SDS011;8068;51.322;9.450;2023-11-21T10:40:51;18.87;;;13.17;;
15938;SDS011;8068;51.322;9.450;2023-11-21T10:43:18;19.40;;;12.83;;
15938;SDS011;8068;51.322;9.450;2023-11-21T10:45:45;22.30;;;14.33;;
15938;SDS011;8068;51.322;9.450;2023-11-21T10:48:13;19.00;;;13.17;;
15938;SDS011;8068;51.322;9.450;2023-11-21T10:50:44;25.87;;;13.43;;
15938;SDS011;8068;51.322;9.450;2023-11-21T10:53:12;22.23;;;13.40;;
15938;SDS011;8068;51.322;9.450;2023-11-21T10:55:40;21.17;;;14.57;;
15938;SDS011;8068;51.322;9.450;2023-11-21T10:58:07;19.60;;;13.40;;
15938;SDS011;8068;51.322;9.450;2023-11-21T11:00:37;22.43;;;13.83;;
15938;SDS011;8068;51.322;9.450;2023-11-21T11:03:04;21.50;;;15.00;;
15938;SDS011;8068;51.322;9.450;2023-11-21T11:05:31;20.33;;;14.27;;
15938;SDS011;8068;51.322;9.450;2023-11-21T11:08:00;20.30;;;14.80;;
15938;SDS011;8068;51.322;9.450;2023-11-21T11:10:31;22.13;;;14.47;;
15938;SDS011;8068;51.322;9.450;2023-11-21T11:12:58;27.83;;;15.17;;
15938;SDS011;8068;51.322;9.450;2023-11-21T11:15:26;24.23;;;14.67;;
15938;SDS011;8068;51.322;9.450;2023-11-21T11:17:54;21.17;;;14.00;;
15938;SDS011;8068;51.322;9.450;2023-11-21T11:20:43;21.07;;;14.50;;
15938;SDS011;8068;51.322;9.450;2023-11-21T11:26:12;24.60;;;13.87;;
15938;SDS011;8068;51.322;9.450;2023-11-21T11:28:51;17.07;;;13.40;;
15938;SDS011;8068;51.322;9.450;2023-11-21T11:37:00;18.47;;;13.80;;
15938;SDS011;8068;51.322;9.450;2023-11-21T11:42:03;23.80;;;15.23;;
15938;SDS011;8068;51.322;9.450;2023-11-21T11:47:15;21.47;;;15.00;;
15938;SDS011;8068;51.322;9.450;2023-11-21T11:52:34;20.03;;;14.10;;
15938;SDS011;8068;51.322;9.450;2023-11-21T11:55:12;16.70;;;13.03;;
15938;SDS011;8068;51.322;9.450;2023-11-21T11:57:46;21.87;;;13.17;;
15938;SDS011;8068;51.322;9.450;2023-11-21T12:03:10;7.30;;;6.60;;
15938;SDS011;8068;51.322;9.450;2023-11-21T12:05:37;7.13;;;6.63;;
15938;SDS011;8068;51.322;9.450;2023-11-21T12:08:10;6.23;;;5.83;;
15938;SDS011;8068;51.322;9.450;2023-11-21T12:10:38;7.10;;;6.43;;
15938;SDS011;8068;51.322;9.450;2023-11-21T12:13:07;6.57;;;5.97;;
15938;SDS011;8068;51.322;9.450;2023-11-21T12:15:35;6.30;;;5.70;;
15938;SDS011;8068;51.322;9.450;2023-11-21T12:18:04;6.30;;;5.80;;
15938;SDS011;8068;51.322;9.450;2023-11-21T12:20:32;6.10;;;5.70;;
15938;SDS011;8068;51.322;9.450;2023-11-21T12:23:05;6.90;;;6.23;;
15938;SDS011;8068;51.322;9.450;2023-11-21T12:25:32;6.73;;;6.13;;
15938;SDS011;8068;51.322;9.450;2023-11-21T12:27:59;7.00;;;6.43;;
15938;SDS011;8068;51.322;9.450;2023-11-21T12:30:29;6.67;;;6.17;;
15938;SDS011;8068;51.322;9.450;2023-11-21T12:33:02;6.27;;;5.77;;
15938;SDS011;8068;51.322;9.450;2023-11-21T12:35:36;7.23;;;6.57;;
15938;SDS011;8068;51.322;9.450;2023-11-21T12:38:03;6.50;;;6.00;;
15938;SDS011;8068;51.322;9.450;2023-11-21T12:40:31;10.70;;;5.93;;
15938;SDS011;8068;51.322;9.450;2023-11-21T12:42:59;5.50;;;5.10;;
15938;SDS011;8068;51.322;9.450;2023-11-21T12:45:28;6.40;;;5.90;;
15938;SDS011;8068;51.322;9.450;2023-11-21T12:48:02;6.00;;;5.60;;
15938;SDS011;8068;51.322;9.450;2023-11-21T12:50:35;5.60;;;5.27;;
15938;SDS011;8068;51.322;9.450;2023-11-21T12:53:05;8.33;;;6.00;;
15938;SDS011;8068;51.322;9.450;2023-11-21T12:55:43;7.60;;;6.57;;
15938;SDS011;8068;51.322;9.450;2023-11-21T12:58:17;7.90;;;6.83;;
15938;SDS011;8068;51.322;9.450;2023-11-21T13:00:47;7.20;;;6.60;;
15938;SDS011;8068;51.322;9.450;2023-11-21T13:03:15;6.80;;;6.30;;
15938;SDS011;8068;51.322;9.450;2023-11-21T13:05:48;9.57;;;8.20;;
15938;SDS011;8068;51.322;9.450;2023-11-21T13:08:19;9.80;;;8.73;;
15938;SDS011;8068;51.322;9.450;2023-11-21T13:10:49;9.30;;;8.10;;
15938;SDS011;8068;51.322;9.450;2023-11-21T13:13:18;9.20;;;8.30;;
15938;SDS011;8068;51.322;9.450;2023-11-21T13:18:18;14.00;;;10.63;;
15938;SDS011;8068;51.322;9.450;2023-11-21T13:20:45;10.93;;;9.83;;
15938;SDS011;8068;51.322;9.450;2023-11-21T13:23:13;11.30;;;9.97;;
15938;SDS011;8068;51.322;9.450;2023-11-21T13:25:42;10.10;;;8.87;;
15938;SDS011;8068;51.322;9.450;2023-11-21T13:28:20;10.80;;;9.70;;
15938;SDS011;8068;51.322;9.450;2023-11-21T13:30:50;8.67;;;7.60;;
15938;SDS011;8068;51.322;9.450;2023-11-21T13:33:19;10.07;;;8.33;;
15938;SDS011;8068;51.322;9.450;2023-11-21T13:35:48;7.13;;;6.60;;
15938;SDS011;8068;51.322;9.450;2023-11-21T13:38:18;4.70;;;4.50;;
15938;SDS011;8068;51.322;9.450;2023-11-21T13:40:52;4.03;;;3.83;;
15938;SDS011;8068;51.322;9.450;2023-11-21T13:43:21;3.70;;;3.60;;
15938;SDS011;8068;51.322;9.450;2023-11-21T13:45:53;3.70;;;3.60;;
15938;SDS011;8068;51.322;9.450;2023-11-21T13:48:30;3.67;;;3.47;;
15938;SDS011;8068;51.322;9.450;2023-11-21T13:51:15;3.00;;;2.90;;
15938;SDS011;8068;51.322;9.450;2023-11-21T13:53:47;3.23;;;3.13;;
15938;SDS011;8068;51.322;9.450;2023-11-21T13:56:17;3.33;;;3.20;;
15938;SDS011;8068;51.322;9.450;2023-11-21T13:58:50;2.67;;;2.57;;
15938;SDS011;8068;51.322;9.450;2023-11-21T14:01:22;3.10;;;3.00;;
15938;SDS011;8068;51.322;9.450;2023-11-21T14:03:56;3.37;;;3.07;;
15938;SDS011;8068;51.322;9.450;2023-11-21T14:06:29;3.80;;;3.70;;
15938;SDS011;8068;51.322;9.450;2023-11-21T14:09:01;4.80;;;4.60;;
15938;SDS011;8068;51.322;9.450;2023-11-21T14:11:32;4.87;;;4.40;;
15938;SDS011;8068;51.322;9.450;2023-11-21T14:14:08;5.40;;;5.10;;
15938;SDS011;8068;51.322;9.450;2023-11-21T14:16:36;5.47;;;5.20;;
15938;SDS011;8068;51.322;9.450;2023-11-21T14:19:03;6.10;;;5.60;;
15938;SDS011;8068;51.322;9.450;2023-11-21T14:21:45;8.20;;;7.40;;
15938;SDS011;8068;51.322;9.450;2023-11-21T14:24:15;5.90;;;5.60;;
15938;SDS011;8068;51.322;9.450;2023-11-21T14:26:45;6.57;;;6.13;;
15938;SDS011;8068;51.322;9.450;2023-11-21T14:29:13;6.37;;;5.97;;
15938;SDS011;8068;51.322;9.450;2023-11-21T14:31:43;6.57;;;6.07;;
15938;SDS011;8068;51.322;9.450;2023-11-21T14:34:10;6.83;;;6.43;;
15938;SDS011;8068;51.322;9.450;2023-11-21T14:36:38;6.30;;;5.93;;
15938;SDS011;8068;51.322;9.450;2023-11-21T14:39:06;7.00;;;6.10;;
15938;SDS011;8068;51.322;9.450;2023-11-21T14:41:36;6.53;;;6.13;;
15938;SDS011;8068;51.322;9.450;2023-11-21T14:44:04;6.33;;;5.87;;
15938;SDS011;8068;51.322;9.450;2023-11-21T14:46:34;8.80;;;6.77;;
15938;SDS011;8068;51.322;9.450;2023-11-21T14:49:03;5.80;;;5.50;;
15938;SDS011;8068;51.322;9.450;2023-11-21T14:51:51;5.70;;;5.30;;
15938;SDS011;8068;51.322;9.450;2023-11-21T14:54:44;6.40;;;6.00;;
15938;SDS011;8068;51.322;9.450;2023-11-21T14:57:21;6.00;;;5.70;;
15938;SDS011;8068;51.322;9.450;2023-11-21T14:59:49;6.67;;;6.27;;
15938;SDS011;8068;51.322;9.450;2023-11-21T15:02:18;6.90;;;6.50;;
15938;SDS011;8068;51.322;9.450;2023-11-21T15:05:09;5.77;;;5.47;;
15938;SDS011;8068;51.322;9.450;2023-11-21T15:07:41;5.77;;;5.23;;
15938;SDS011;8068;51.322;9.450;2023-11-21T15:10:10;5.27;;;5.00;;
15938;SDS011;8068;51.322;9.450;2023-11-21T15:12:40;5.50;;;5.13;;
15938;SDS011;8068;51.322;9.450;2023-11-21T15:15:08;4.50;;;4.13;;
15938;SDS011;8068;51.322;9.450;2023-11-21T15:17:37;4.93;;;4.60;;
15938;SDS011;8068;51.322;9.450;2023-11-21T15:20:05;5.57;;;5.20;;
15938;SDS011;8068;51.322;9.450;2023-11-21T15:22:34;5.83;;;5.23;;
15938;SDS011;8068;51.322;9.450;2023-11-21T15:25:01;5.57;;;5.27;;
15938;SDS011;8068;51.322;9.450;2023-11-21T15:27:34;5.30;;;4.97;;